sensor_id;sensor_type;location;lat;lon;timestamp;pressure;altitude;pressure_sealevel;temperature;humidity
36092;BME280;22147;52.388;13.390;2023-09-18T00:01:28;100527.25;;;15.73;100.00
36092;BME280;22147;52.388;13.390;2023-09-18T00:03:56;100528.06;;;15.74;100.00
36092;BME280;22147;52.388;13.390;2023-09-18T00:06:24;100524.81;;;15.72;100.00
36092;BME280;22147;52.388;13.390;2023-09-18T00:08:53;100525.16;;;15.70;100.00
36092;BME280;22147;52.388;13.390;2023-09-18T00:11:21;100529.13;;;15.69;100.00
36092;BME280;22147;52.388;13.390;2023-09-18T00:13:50;100522.75;;;15.68;100.00
36092;BME280;22147;52.388;13.390;2023-09-18T00:16:18;100519.50;;;15.66;100.00
36092;BME280;22147;52.388;13.390;2023-09-18T00:18:46;100521.47;;;15.66;100.00
36092;BME280;22147;52.388;13.390;2023-09-18T00:21:15;100521.03;;;15.64;100.00
36092;BME280;22147;52.388;13.390;2023-09-18T00:23:43;100516.97;;;15.61;100.00
36092;BME280;22147;52.388;13.390;2023-09-18T00:26:12;100522.13;;;15.59;100.00
36092;BME280;22147;52.388;13.390;2023-09-18T00:28:40;100512.94;;;15.59;100.00
36092;BME280;22147;52.388;13.390;2023-09-18T00:31:09;100505.34;;;15.59;100.00
36092;BME280;22147;52.388;13.390;2023-09-18T00:33:37;100512.84;;;15.55;100.00
36092;BME280;22147;52.388;13.390;2023-09-18T00:36:05;100510.03;;;15.55;100.00
36092;BME280;22147;52.388;13.390;2023-09-18T00:38:34;100505.56;;;15.51;100.00
36092;BME280;22147;52.388;13.390;2023-09-18T00:41:02;100493.56;;;15.50;100.00
36092;BME280;22147;52.388;13.390;2023-09-18T00:43:31;100496.72;;;15.48;100.00
36092;BME280;22147;52.388;13.390;2023-09-18T00:45:59;100499.06;;;15.46;100.00
36092;BME280;22147;52.388;13.390;2023-09-18T00:48:27;100502.63;;;15.43;100.00
36092;BME280;22147;52.388;13.390;2023-09-18T00:50:56;100504.16;;;15.41;100.00
36092;BME280;22147;52.388;13.390;2023-09-18T00:53:26;100496.03;;;15.36;100.00
36092;BME280;22147;52.388;13.390;2023-09-18T00:56:00;100486.75;;;15.32;100.00
36092;BME280;22147;52.388;13.390;2023-09-18T00:58:30;100484.69;;;15.29;100.00
36092;BME280;22147;52.388;13.390;2023-09-18T01:01:04;100477.91;;;15.30;100.00
36092;BME280;22147;52.388;13.390;2023-09-18T01:03:34;100475.91;;;15.30;100.00
36092;BME280;22147;52.388;13.390;2023-09-18T01:06:05;100486.66;;;15.28;100.00
36092;BME280;22147;52.388;13.390;2023-09-18T01:08:36;100486.22;;;15.26;100.00
36092;BME280;22147;52.388;13.390;2023-09-18T01:11:36;100484.53;;;15.21;100.00
36092;BME280;22147;52.388;13.390;2023-09-18T01:17:05;100484.47;;;15.18;100.00
36092;BME280;22147;52.388;13.390;2023-09-18T01:19:45;100487.25;;;15.18;100.00
36092;BME280;22147;52.388;13.390;2023-09-18T01:22:18;100481.13;;;15.12;100.00
36092;BME280;22147;52.388;13.390;2023-09-18T01:24:48;100477.09;;;15.10;100.00
36092;BME280;22147;52.388;13.390;2023-09-18T01:27:18;100476.69;;;15.11;100.00
36092;BME280;22147;52.388;13.390;2023-09-18T01:29:48;100474.66;;;15.08;100.00
36092;BME280;22147;52.388;13.390;2023-09-18T01:32:19;100470.25;;;15.07;100.00
36092;BME280;22147;52.388;13.390;2023-09-18T01:34:59;100468.97;;;15.04;100.00
36092;BME280;22147;52.388;13.390;2023-09-18T01:37:31;100466.56;;;15.03;100.00
36092;BME280;22147;52.388;13.390;2023-09-18T01:40:08;100467.63;;;14.98;100.00
36092;BME280;22147;52.388;13.390;2023-09-18T01:42:41;100465.56;;;14.95;100.00
36092;BME280;22147;52.388;13.390;2023-09-18T01:45:12;100464.66;;;14.91;100.00
36092;BME280;22147;52.388;13.390;2023-09-18T01:47:42;100463.06;;;14.90;100.00
36092;BME280;22147;52.388;13.390;2023-09-18T01:50:12;100469.38;;;14.87;100.00
36092;BME280;22147;52.388;13.390;2023-09-18T01:52:43;100467.66;;;14.82;100.00
36092;BME280;22147;52.388;13.390;2023-09-18T01:55:11;100447.19;;;14.78;100.00
36092;BME280;22147;52.388;13.390;2023-09-18T01:57:41;100443.59;;;14.78;100.00
36092;BME280;22147;52.388;13.390;2023-09-18T02:00:12;100436.81;;;14.79;100.00
36092;BME280;22147;52.388;13.390;2023-09-18T02:02:43;100436.81;;;14.79;100.00
36092;BME280;22147;52.388;13.390;2023-09-18T02:05:18;100434.38;;;14.77;100.00
36092;BME280;22147;52.388;13.390;2023-09-18T02:07:46;100427.19;;;14.76;100.00
36092;BME280;22147;52.388;13.390;2023-09-18T02:10:15;100423.13;;;14.74;100.00
36092;BME280;22147;52.388;13.390;2023-09-18T02:12:43;100408.72;;;14.72;100.00
36092;BME280;22147;52.388;13.390;2023-09-18T02:15:12;100412.66;;;14.71;100.00
36092;BME280;22147;52.388;13.390;2023-09-18T02:17:40;100404.22;;;14.67;100.00
36092;BME280;22147;52.388;13.390;2023-09-18T02:20:10;100398.53;;;14.63;100.00
36092;BME280;22147;52.388;13.390;2023-09-18T02:22:42;100402.06;;;14.60;100.00
36092;BME280;22147;52.388;13.390;2023-09-18T02:25:14;100396.03;;;14.58;100.00
36092;BME280;22147;52.388;13.390;2023-09-18T02:27:44;100401.97;;;14.57;100.00
36092;BME280;22147;52.388;13.390;2023-09-18T02:30:14;100396.03;;;14.58;100.00
36092;BME280;22147;52.388;13.390;2023-09-18T02:32:44;100401.97;;;14.57;100.00
36092;BME280;22147;52.388;13.390;2023-09-18T02:35:15;100388.38;;;14.55;100.00
36092;BME280;22147;52.388;13.390;2023-09-18T02:37:45;100391.97;;;14.56;100.00
36092;BME280;22147;52.388;13.390;2023-09-18T02:40:15;100386.03;;;14.57;100.00
36092;BME280;22147;52.388;13.390;2023-09-18T02:42:46;100380.44;;;14.57;100.00
36092;BME280;22147;52.388;13.390;2023-09-18T02:45:16;100381.63;;;14.56;100.00
36092;BME280;22147;52.388;13.390;2023-09-18T02:47:46;100376.34;;;14.55;100.00
36092;BME280;22147;52.388;13.390;2023-09-18T02:50:16;100371.47;;;14.52;100.00
36092;BME280;22147;52.388;13.390;2023-09-18T02:52:47;100367.44;;;14.49;100.00
36092;BME280;22147;52.388;13.390;2023-09-18T02:55:17;100376.19;;;14.48;100.00
36092;BME280;22147;52.388;13.390;2023-09-18T02:57:47;100366.19;;;14.46;100.00
36092;BME280;22147;52.388;13.390;2023-09-18T03:00:17;100361.69;;;14.42;100.00
36092;BME280;22147;52.388;13.390;2023-09-18T03:03:05;100361.59;;;14.38;100.00
36092;BME280;22147;52.388;13.390;2023-09-18T03:05:37;100357.56;;;14.36;100.00
36092;BME280;22147;52.388;13.390;2023-09-18T03:08:10;100351.53;;;14.34;100.00
36092;BME280;22147;52.388;13.390;2023-09-18T03:10:43;100345.56;;;14.35;100.00
36092;BME280;22147;52.388;13.390;2023-09-18T03:13:15;100349.19;;;14.36;100.00
36092;BME280;22147;52.388;13.390;2023-09-18T03:15:45;100341.16;;;14.34;100.00
36092;BME280;22147;52.388;13.390;2023-09-18T03:18:16;100350.34;;;14.35;100.00
36092;BME280;22147;52.388;13.390;2023-09-18T03:20:45;100341.06;;;14.31;100.00
36092;BME280;22147;52.388;13.390;2023-09-18T03:23:13;100347.03;;;14.29;100.00
36092;BME280;22147;52.388;13.390;2023-09-18T03:25:42;100341.78;;;14.28;100.00
36092;BME280;22147;52.388;13.390;2023-09-18T03:28:20;100338.19;;;14.27;100.00
36092;BME280;22147;52.388;13.390;2023-09-18T03:30:51;100338.56;;;14.25;100.00
36092;BME280;22147;52.388;13.390;2023-09-18T03:33:21;100338.91;;;14.24;100.00
36092;BME280;22147;52.388;13.390;2023-09-18T03:35:53;100334.50;;;14.23;100.00
36092;BME280;22147;52.388;13.390;2023-09-18T03:38:24;100332.88;;;14.22;100.00
36092;BME280;22147;52.388;13.390;2023-09-18T03:40:55;100326.03;;;14.19;100.00
36092;BME280;22147;52.388;13.390;2023-09-18T03:43:25;100334.75;;;14.18;100.00
36092;BME280;22147;52.388;13.390;2023-09-18T03:46:03;100339.19;;;14.19;100.00
36092;BME280;22147;52.388;13.390;2023-09-18T03:48:36;100339.53;;;14.17;100.00
36092;BME280;22147;52.388;13.390;2023-09-18T03:51:07;100339.91;;;14.16;100.00
36092;BME280;22147;52.388;13.390;2023-09-18T03:53:46;100343.44;;;14.13;100.00
36092;BME280;22147;52.388;13.390;2023-09-18T03:56:17;100337.41;;;14.11;100.00
36092;BME280;22147;52.388;13.390;2023-09-18T03:58:46;100325.78;;;14.09;100.00
36092;BME280;22147;52.388;13.390;2023-09-18T04:01:17;100319.84;;;14.10;100.00
36092;BME280;22147;52.388;13.390;2023-09-18T04:03:45;100320.19;;;14.09;100.00
36092;BME280;22147;52.388;13.390;2023-09-18T04:06:14;100308.56;;;14.07;100.00
36092;BME280;22147;52.388;13.390;2023-09-18T04:08:42;100305.78;;;14.07;100.00
36092;BME280;22147;52.388;13.390;2023-09-18T04:11:11;100301.00;;;14.07;100.00
36092;BME280;22147;52.388;13.390;2023-09-18T04:13:39;100309.03;;;14.09;100.00
36092;BME280;22147;52.388;13.390;2023-09-18T04:16:07;100313.88;;;14.12;100.00
36092;BME280;22147;52.388;13.390;2023-09-18T04:18:36;100298.31;;;14.11;100.00
36092;BME280;22147;52.388;13.390;2023-09-18T04:21:04;100298.31;;;14.11;100.00
36092;BME280;22147;52.388;13.390;2023-09-18T04:23:33;100295.16;;;14.12;100.00
36092;BME280;22147;52.388;13.390;2023-09-18T04:26:01;100294.31;;;14.12;100.00
36092;BME280;22147;52.388;13.390;2023-09-18T04:28:29;100293.97;;;14.13;100.00
36092;BME280;22147;52.388;13.390;2023-09-18T04:30:58;100294.78;;;14.14;100.00
36092;BME280;22147;52.388;13.390;2023-09-18T04:33:26;100297.94;;;14.12;100.00
36092;BME280;22147;52.388;13.390;2023-09-18T04:35:58;100289.94;;;14.11;100.00
36092;BME280;22147;52.388;13.390;2023-09-18T04:38:26;100287.50;;;14.09;100.00
36092;BME280;22147;52.388;13.390;2023-09-18T04:40:59;100283.91;;;14.09;100.00
36092;BME280;22147;52.388;13.390;2023-09-18T04:43:29;100281.47;;;14.07;100.00
36092;BME280;22147;52.388;13.390;2023-09-18T04:46:00;100279.94;;;14.10;100.00
36092;BME280;22147;52.388;13.390;2023-09-18T04:48:36;100284.69;;;14.09;100.00
36092;BME280;22147;52.388;13.390;2023-09-18T04:51:06;100281.91;;;14.09;100.00
36092;BME280;22147;52.388;13.390;2023-09-18T04:53:37;100282.75;;;14.10;100.00
36092;BME280;22147;52.388;13.390;2023-09-18T04:56:07;100284.34;;;14.11;100.00
36092;BME280;22147;52.388;13.390;2023-09-18T04:58:38;100278.31;;;14.09;100.00
36092;BME280;22147;52.388;13.390;2023-09-18T05:01:08;100279.56;;;14.11;100.00
36092;BME280;22147;52.388;13.390;2023-09-18T05:03:38;100276.06;;;14.14;100.00
36092;BME280;22147;52.388;13.390;2023-09-18T05:06:09;100278.47;;;14.16;100.00
36092;BME280;22147;52.388;13.390;2023-09-18T05:08:39;100280.09;;;14.17;100.00
36092;BME280;22147;52.388;13.390;2023-09-18T05:11:09;100278.91;;;14.18;100.00
36092;BME280;22147;52.388;13.390;2023-09-18T05:13:43;100279.38;;;14.20;100.00
36092;BME280;22147;52.388;13.390;2023-09-18T05:16:13;100278.28;;;14.24;100.00
36092;BME280;22147;52.388;13.390;2023-09-18T05:18:43;100274.75;;;14.28;100.00
36092;BME280;22147;52.388;13.390;2023-09-18T05:21:13;100271.22;;;14.31;100.00
36092;BME280;22147;52.388;13.390;2023-09-18T05:23:40;100263.75;;;14.35;100.00
36092;BME280;22147;52.388;13.390;2023-09-18T05:26:11;100256.34;;;14.42;100.00
36092;BME280;22147;52.388;13.390;2023-09-18T05:28:41;100261.28;;;14.49;100.00
36092;BME280;22147;52.388;13.390;2023-09-18T05:31:11;100251.47;;;14.55;100.00
36092;BME280;22147;52.388;13.390;2023-09-18T05:33:42;100258.38;;;14.61;100.00
36092;BME280;22147;52.388;13.390;2023-09-18T05:36:13;100259.34;;;14.69;100.00
36092;BME280;22147;52.388;13.390;2023-09-18T05:38:43;100254.69;;;14.77;100.00
36092;BME280;22147;52.388;13.390;2023-09-18T05:41:13;100258.00;;;14.82;100.00
36092;BME280;22147;52.388;13.390;2023-09-18T05:43:44;100249.41;;;14.91;100.00
36092;BME280;22147;52.388;13.390;2023-09-18T05:46:14;100246.38;;;15.00;100.00
36092;BME280;22147;52.388;13.390;2023-09-18T05:48:44;100240.94;;;15.07;100.00
36092;BME280;22147;52.388;13.390;2023-09-18T05:51:14;100241.84;;;15.15;100.00
36092;BME280;22147;52.388;13.390;2023-09-18T05:53:44;100230.81;;;15.22;100.00
36092;BME280;22147;52.388;13.390;2023-09-18T05:56:15;100234.59;;;15.33;100.00
36092;BME280;22147;52.388;13.390;2023-09-18T05:58:46;100225.53;;;15.40;100.00
36092;BME280;22147;52.388;13.390;2023-09-18T06:01:16;100224.41;;;15.44;100.00
36092;BME280;22147;52.388;13.390;2023-09-18T06:03:46;100223.59;;;15.44;100.00
36092;BME280;22147;52.388;13.390;2023-09-18T06:06:16;100214.44;;;15.47;100.00
36092;BME280;22147;52.388;13.390;2023-09-18T06:08:46;100218.19;;;15.55;100.00
36092;BME280;22147;52.388;13.390;2023-09-18T06:11:16;100213.81;;;15.57;100.00
36092;BME280;22147;52.388;13.390;2023-09-18T06:13:47;100211.09;;;15.61;100.00
36092;BME280;22147;52.388;13.390;2023-09-18T06:16:15;100207.16;;;15.65;100.00
36092;BME280;22147;52.388;13.390;2023-09-18T06:18:44;100207.38;;;15.76;100.00
36092;BME280;22147;52.388;13.390;2023-09-18T06:21:15;100201.94;;;15.87;100.00
36092;BME280;22147;52.388;13.390;2023-09-18T06:23:45;100195.38;;;16.02;100.00
36092;BME280;22147;52.388;13.390;2023-09-18T06:26:15;100198.75;;;16.15;100.00
36092;BME280;22147;52.388;13.390;2023-09-18T06:28:45;100203.00;;;16.32;100.00
36092;BME280;22147;52.388;13.390;2023-09-18T06:31:15;100195.16;;;16.48;100.00
36092;BME280;22147;52.388;13.390;2023-09-18T06:33:46;100195.69;;;16.58;100.00
36092;BME280;22147;52.388;13.390;2023-09-18T06:36:16;100187.28;;;16.58;100.00
36092;BME280;22147;52.388;13.390;2023-09-18T06:38:46;100185.78;;;16.67;100.00
36092;BME280;22147;52.388;13.390;2023-09-18T06:41:16;100184.84;;;16.86;100.00
36092;BME280;22147;52.388;13.390;2023-09-18T06:43:46;100179.44;;;17.04;100.00
36092;BME280;22147;52.388;13.390;2023-09-18T06:46:17;100178.41;;;17.23;100.00
36092;BME280;22147;52.388;13.390;2023-09-18T06:48:47;100172.94;;;17.38;100.00
36092;BME280;22147;52.388;13.390;2023-09-18T06:51:17;100162.63;;;17.53;100.00
36092;BME280;22147;52.388;13.390;2023-09-18T06:53:58;100167.97;;;17.72;100.00
36092;BME280;22147;52.388;13.390;2023-09-18T06:56:32;100166.09;;;17.90;100.00
36092;BME280;22147;52.388;13.390;2023-09-18T06:59:03;100162.63;;;18.08;100.00
36092;BME280;22147;52.388;13.390;2023-09-18T07:01:33;100159.06;;;18.18;100.00
36092;BME280;22147;52.388;13.390;2023-09-18T07:04:04;100147.06;;;18.32;100.00
36092;BME280;22147;52.388;13.390;2023-09-18T07:06:35;100150.34;;;18.48;100.00
36092;BME280;22147;52.388;13.390;2023-09-18T07:09:05;100142.78;;;18.63;100.00
36092;BME280;22147;52.388;13.390;2023-09-18T07:11:37;100130.72;;;18.77;100.00
36092;BME280;22147;52.388;13.390;2023-09-18T07:14:07;100134.41;;;18.88;100.00
36092;BME280;22147;52.388;13.390;2023-09-18T07:16:35;100140.88;;;19.10;100.00
36092;BME280;22147;52.388;13.390;2023-09-18T07:19:04;100147.75;;;19.35;100.00
36092;BME280;22147;52.388;13.390;2023-09-18T07:21:38;100141.28;;;19.56;100.00
36092;BME280;22147;52.388;13.390;2023-09-18T07:24:10;100131.22;;;19.80;100.00
36092;BME280;22147;52.388;13.390;2023-09-18T07:26:48;100135.97;;;20.08;99.46
36092;BME280;22147;52.388;13.390;2023-09-18T07:29:17;100126.66;;;20.25;96.42
36092;BME280;22147;52.388;13.390;2023-09-18T07:31:46;100125.34;;;20.48;95.58
36092;BME280;22147;52.388;13.390;2023-09-18T07:34:14;100129.72;;;20.63;93.04
36092;BME280;22147;52.388;13.390;2023-09-18T07:36:47;100132.06;;;20.83;93.57
36092;BME280;22147;52.388;13.390;2023-09-18T07:39:17;100125.03;;;21.05;91.92
36092;BME280;22147;52.388;13.390;2023-09-18T07:41:47;100130.66;;;21.09;90.83
36092;BME280;22147;52.388;13.390;2023-09-18T07:44:21;100135.75;;;21.25;89.73
36092;BME280;22147;52.388;13.390;2023-09-18T07:46:51;100132.38;;;21.48;88.59
36092;BME280;22147;52.388;13.390;2023-09-18T07:49:24;100124.94;;;21.65;87.75
36092;BME280;22147;52.388;13.390;2023-09-18T07:51:54;100124.03;;;21.79;87.05
36092;BME280;22147;52.388;13.390;2023-09-18T07:54:24;100120.88;;;21.69;85.40
36092;BME280;22147;52.388;13.390;2023-09-18T07:56:54;100117.66;;;21.67;86.22
36092;BME280;22147;52.388;13.390;2023-09-18T07:59:25;100112.97;;;21.91;85.76
36092;BME280;22147;52.388;13.390;2023-09-18T08:01:55;100113.47;;;22.21;84.75
36092;BME280;22147;52.388;13.390;2023-09-18T08:04:25;100111.66;;;22.38;81.68
36092;BME280;22147;52.388;13.390;2023-09-18T08:06:55;100103.47;;;22.43;80.97
36092;BME280;22147;52.388;13.390;2023-09-18T08:09:26;100101.47;;;22.44;81.58
36092;BME280;22147;52.388;13.390;2023-09-18T08:11:59;100103.56;;;22.67;81.94
36092;BME280;22147;52.388;13.390;2023-09-18T08:14:30;100108.75;;;22.72;79.27
36092;BME280;22147;52.388;13.390;2023-09-18T08:17:01;100100.59;;;22.77;80.52
36092;BME280;22147;52.388;13.390;2023-09-18T08:19:33;100095.81;;;23.02;78.37
36092;BME280;22147;52.388;13.390;2023-09-18T08:22:03;100090.56;;;23.24;76.95
36092;BME280;22147;52.388;13.390;2023-09-18T08:24:34;100091.59;;;23.37;77.08
36092;BME280;22147;52.388;13.390;2023-09-18T08:27:04;100089.28;;;23.52;76.03
36092;BME280;22147;52.388;13.390;2023-09-18T08:29:34;100091.50;;;23.41;75.02
36092;BME280;22147;52.388;13.390;2023-09-18T08:32:04;100082.53;;;23.46;73.50
36092;BME280;22147;52.388;13.390;2023-09-18T08:34:35;100085.53;;;23.58;76.89
36092;BME280;22147;52.388;13.390;2023-09-18T08:37:05;100086.53;;;23.68;75.12
36092;BME280;22147;52.388;13.390;2023-09-18T08:39:36;100089.84;;;23.67;73.80
36092;BME280;22147;52.388;13.390;2023-09-18T08:42:11;100088.94;;;23.70;73.68
36092;BME280;22147;52.388;13.390;2023-09-18T08:44:48;100088.41;;;23.55;74.93
36092;BME280;22147;52.388;13.390;2023-09-18T08:47:22;100083.44;;;23.39;73.25
36092;BME280;22147;52.388;13.390;2023-09-18T08:49:55;100075.25;;;23.45;73.80
36092;BME280;22147;52.388;13.390;2023-09-18T08:52:29;100064.09;;;23.34;73.56
36092;BME280;22147;52.388;13.390;2023-09-18T08:55:00;100049.31;;;23.46;76.13
36092;BME280;22147;52.388;13.390;2023-09-18T08:57:33;100050.56;;;23.65;73.99
36092;BME280;22147;52.388;13.390;2023-09-18T09:00:07;100039.63;;;23.87;75.01
36092;BME280;22147;52.388;13.390;2023-09-18T09:02:38;100046.16;;;24.04;73.75
36092;BME280;22147;52.388;13.390;2023-09-18T09:05:08;100039.41;;;23.98;71.42
36092;BME280;22147;52.388;13.390;2023-09-18T09:07:39;100040.59;;;23.81;69.79
36092;BME280;22147;52.388;13.390;2023-09-18T09:10:09;100038.34;;;23.68;71.38
36092;BME280;22147;52.388;13.390;2023-09-18T09:15:34;100031.03;;;23.71;72.20
36092;BME280;22147;52.388;13.390;2023-09-18T09:18:16;100023.81;;;23.66;70.79
36092;BME280;22147;52.388;13.390;2023-09-18T09:21:03;100019.22;;;23.76;72.61
36092;BME280;22147;52.388;13.390;2023-09-18T09:23:51;100012.31;;;23.97;72.75
36092;BME280;22147;52.388;13.390;2023-09-18T09:26:23;100005.53;;;24.11;71.29
36092;BME280;22147;52.388;13.390;2023-09-18T09:28:52;100012.16;;;24.04;68.95
36092;BME280;22147;52.388;13.390;2023-09-18T09:31:28;100012.97;;;24.05;70.15
36092;BME280;22147;52.388;13.390;2023-09-18T09:34:00;100018.78;;;23.97;68.97
36092;BME280;22147;52.388;13.390;2023-09-18T09:36:35;100033.84;;;23.94;69.87
36092;BME280;22147;52.388;13.390;2023-09-18T09:39:05;100025.53;;;24.04;72.20
36092;BME280;22147;52.388;13.390;2023-09-18T09:41:33;100032.34;;;24.06;69.82
36092;BME280;22147;52.388;13.390;2023-09-18T09:44:05;100031.56;;;24.06;69.17
36092;BME280;22147;52.388;13.390;2023-09-18T09:46:34;100015.41;;;24.23;70.13
36092;BME280;22147;52.388;13.390;2023-09-18T09:49:05;100016.66;;;24.22;69.66
36092;BME280;22147;52.388;13.390;2023-09-18T09:51:35;100008.88;;;24.26;70.66
36092;BME280;22147;52.388;13.390;2023-09-18T09:54:05;100004.34;;;24.28;72.24
36092;BME280;22147;52.388;13.390;2023-09-18T09:56:50;100008.03;;;24.25;72.15
36092;BME280;22147;52.388;13.390;2023-09-18T09:59:21;100001.75;;;24.17;68.92
36092;BME280;22147;52.388;13.390;2023-09-18T10:01:51;99989.31;;;24.11;69.39
36092;BME280;22147;52.388;13.390;2023-09-18T10:04:20;99982.69;;;24.18;69.41
36092;BME280;22147;52.388;13.390;2023-09-18T10:07:08;99982.63;;;24.22;68.82
36092;BME280;22147;52.388;13.390;2023-09-18T10:09:42;99981.91;;;24.17;68.93
36092;BME280;22147;52.388;13.390;2023-09-18T10:12:17;99974.19;;;24.18;71.10
36092;BME280;22147;52.388;13.390;2023-09-18T10:14:56;99968.75;;;24.07;68.37
36092;BME280;22147;52.388;13.390;2023-09-18T10:17:36;99974.34;;;24.11;67.78
36092;BME280;22147;52.388;13.390;2023-09-18T10:20:17;99990.13;;;24.12;68.15
36092;BME280;22147;52.388;13.390;2023-09-18T10:22:56;99985.41;;;24.05;67.32
36092;BME280;22147;52.388;13.390;2023-09-18T10:25:29;99991.88;;;24.06;67.73
36092;BME280;22147;52.388;13.390;2023-09-18T10:28:03;100002.00;;;24.07;69.77
36092;BME280;22147;52.388;13.390;2023-09-18T10:30:36;100002.56;;;23.98;69.13
36092;BME280;22147;52.388;13.390;2023-09-18T10:33:04;100011.44;;;23.80;69.31
36092;BME280;22147;52.388;13.390;2023-09-18T10:35:38;100011.13;;;23.74;70.04
36092;BME280;22147;52.388;13.390;2023-09-18T10:38:11;100006.69;;;23.73;69.25
36092;BME280;22147;52.388;13.390;2023-09-18T10:40:43;100014.56;;;23.86;72.27
36092;BME280;22147;52.388;13.390;2023-09-18T10:43:16;100003.00;;;23.96;70.19
36092;BME280;22147;52.388;13.390;2023-09-18T10:45:48;100000.72;;;24.08;70.81
36092;BME280;22147;52.388;13.390;2023-09-18T10:48:23;99995.13;;;24.04;69.47
36092;BME280;22147;52.388;13.390;2023-09-18T10:50:54;99986.31;;;24.18;70.25
36092;BME280;22147;52.388;13.390;2023-09-18T10:53:26;99986.34;;;24.35;70.17
36092;BME280;22147;52.388;13.390;2023-09-18T10:55:56;99983.47;;;24.55;69.88
36092;BME280;22147;52.388;13.390;2023-09-18T10:58:27;99988.34;;;24.54;68.91
36092;BME280;22147;52.388;13.390;2023-09-18T11:00:59;99984.28;;;24.55;71.12
36092;BME280;22147;52.388;13.390;2023-09-18T11:03:33;99986.78;;;24.53;70.67
36092;BME280;22147;52.388;13.390;2023-09-18T11:06:11;99989.56;;;24.37;69.67
36092;BME280;22147;52.388;13.390;2023-09-18T11:08:49;99982.75;;;24.14;70.45
36092;BME280;22147;52.388;13.390;2023-09-18T11:11:21;99983.72;;;24.08;70.38
36092;BME280;22147;52.388;13.390;2023-09-18T11:13:53;99992.81;;;23.79;68.94
36092;BME280;22147;52.388;13.390;2023-09-18T11:21:33;99992.44;;;23.37;70.96
36092;BME280;22147;52.388;13.390;2023-09-18T11:24:14;99998.16;;;23.33;72.52
36092;BME280;22147;52.388;13.390;2023-09-18T11:26:51;100004.34;;;23.28;71.35
36092;BME280;22147;52.388;13.390;2023-09-18T11:29:23;99997.94;;;23.24;72.20
36092;BME280;22147;52.388;13.390;2023-09-18T11:31:56;100005.75;;;23.16;72.91
36092;BME280;22147;52.388;13.390;2023-09-18T11:34:35;100015.47;;;23.15;73.89
36092;BME280;22147;52.388;13.390;2023-09-18T11:37:22;100007.84;;;23.12;75.03
36092;BME280;22147;52.388;13.390;2023-09-18T11:39:52;99994.63;;;23.06;76.23
36092;BME280;22147;52.388;13.390;2023-09-18T11:42:22;99996.72;;;23.02;75.53
36092;BME280;22147;52.388;13.390;2023-09-18T11:44:56;99990.66;;;23.00;76.46
36092;BME280;22147;52.388;13.390;2023-09-18T11:47:26;99990.16;;;23.05;79.56
36092;BME280;22147;52.388;13.390;2023-09-18T11:49:59;99995.47;;;23.03;79.59
36092;BME280;22147;52.388;13.390;2023-09-18T11:52:31;99991.34;;;23.07;81.09
36092;BME280;22147;52.388;13.390;2023-09-18T11:55:00;99991.72;;;23.09;80.28
36092;BME280;22147;52.388;13.390;2023-09-18T11:57:35;99985.63;;;23.11;79.65
36092;BME280;22147;52.388;13.390;2023-09-18T12:00:18;99984.25;;;23.19;79.51
36092;BME280;22147;52.388;13.390;2023-09-18T12:02:51;99989.59;;;23.37;77.91
36092;BME280;22147;52.388;13.390;2023-09-18T12:05:21;99981.25;;;23.50;73.59
36092;BME280;22147;52.388;13.390;2023-09-18T12:07:55;99990.53;;;23.70;75.69
36092;BME280;22147;52.388;13.390;2023-09-18T12:10:27;99982.34;;;23.96;74.24
36092;BME280;22147;52.388;13.390;2023-09-18T12:12:56;99982.16;;;24.23;72.80
36092;BME280;22147;52.388;13.390;2023-09-18T12:15:26;99975.09;;;24.48;73.81
36092;BME280;22147;52.388;13.390;2023-09-18T12:18:11;99975.50;;;24.66;73.65
36092;BME280;22147;52.388;13.390;2023-09-18T12:20:49;99974.34;;;24.64;72.24
36092;BME280;22147;52.388;13.390;2023-09-18T12:23:20;99973.91;;;24.65;68.09
36092;BME280;22147;52.388;13.390;2023-09-18T12:26:00;99965.13;;;24.60;70.66
36092;BME280;22147;52.388;13.390;2023-09-18T12:28:33;99956.28;;;24.37;68.90
36092;BME280;22147;52.388;13.390;2023-09-18T12:31:05;99957.44;;;24.24;68.45
36092;BME280;22147;52.388;13.390;2023-09-18T12:33:41;99954.28;;;24.02;69.46
36092;BME280;22147;52.388;13.390;2023-09-18T12:36:19;99960.91;;;23.95;68.83
36092;BME280;22147;52.388;13.390;2023-09-18T12:38:59;99957.88;;;23.86;69.54
36092;BME280;22147;52.388;13.390;2023-09-18T12:41:32;99955.84;;;23.86;70.44
36092;BME280;22147;52.388;13.390;2023-09-18T12:44:06;99956.34;;;23.81;69.78
36092;BME280;22147;52.388;13.390;2023-09-18T12:46:38;99954.09;;;23.92;71.85
36092;BME280;22147;52.388;13.390;2023-09-18T12:49:20;99944.63;;;23.99;71.50
36092;BME280;22147;52.388;13.390;2023-09-18T12:52:01;99951.31;;;23.89;70.35
36092;BME280;22147;52.388;13.390;2023-09-18T12:54:54;99940.94;;;23.82;71.35
36092;BME280;22147;52.388;13.390;2023-09-18T12:57:26;99949.72;;;23.68;71.63
36092;BME280;22147;52.388;13.390;2023-09-18T12:59:56;99966.09;;;23.60;74.09
36092;BME280;22147;52.388;13.390;2023-09-18T13:02:26;99971.94;;;23.49;76.61
36092;BME280;22147;52.388;13.390;2023-09-18T13:04:59;99982.47;;;23.29;75.56
36092;BME280;22147;52.388;13.390;2023-09-18T13:07:29;99974.66;;;23.13;77.71
36092;BME280;22147;52.388;13.390;2023-09-18T13:10:08;99965.56;;;23.02;78.03